ROMMA est une association bénévole à but non lucratif. Votre soutien est indispensable : ADHERER à ROMMA ou FAIRE un DON

Montélimar - (26, Drôme)

Basse vallée du Rhône (88 m)   Longitude: 04° 45' E   Latitude: 44° 32' N Station partenaire n°164
 

Détail journalier du     <<     >>

Température Precipitation Humidité Pression Vent Dir Rafale Dir. rafale Ensol.
Heure (°C) (mm) (%) (hPa) (km/h) (km/h) (min)
01:00 19.905310164---29N0
02:00 19.2053101712N29NE0
03:00 18.405310178NE27ENE0
04:00 17.9054101710NE27ENE0
05:00 17.2056101612NE29ENE0
06:00 16.6057101612NE32ENE0
07:00 16.0058101610NE29ENE0
08:00 15.405810169NE31NE0
09:00 15.3057101713NE42NE40
10:00 16.6054101817NE40NE60
11:00 18.0051101818NE37ENE60
12:00 19.6049101819N44ENE60
13:00 20.8049101719N47NE60
14:00 21.9048101722N52NE50
15:00 22.6047101725N50NE57
16:00 23.0046101626N47N60
17:00 23.4045101623N45NNO56
18:00 23.1045101626N50NNO45
19:00 22.6046101723N50NNE0
20:00 21.7047101723N44NNE0
21:00 21.2048101818N37NO0
22:00 20.7047101813N37NNE0
23:00 19.9043101912NE27NE0
minuit 19.2042102010NE31ENE0

Graphique du 19-09-2019

 

Serveur OMMA